createdAt,value
2023-01-31T00:01:40.058Z,3.80
2023-01-31T00:04:09.712Z,3.80
2023-01-31T00:06:51.375Z,3.80
2023-01-31T00:09:18.489Z,3.70
2023-01-31T00:11:45.360Z,3.70
2023-01-31T00:14:16.605Z,3.70
2023-01-31T00:16:43.458Z,3.70
2023-01-31T00:19:10.227Z,3.70
2023-01-31T00:21:38.056Z,3.60
2023-01-31T00:24:05.779Z,3.60
2023-01-31T00:26:34.985Z,3.50
2023-01-31T00:29:03.751Z,3.50
2023-01-31T00:31:32.544Z,3.50
2023-01-31T00:33:59.584Z,3.50
2023-01-31T00:36:33.581Z,3.50
2023-01-31T00:39:01.977Z,3.50
2023-01-31T00:41:30.297Z,3.40
2023-01-31T00:43:57.721Z,3.40
2023-01-31T00:46:28.042Z,3.40
2023-01-31T00:49:02.121Z,3.30
2023-01-31T00:51:28.944Z,3.20
2023-01-31T00:53:55.802Z,3.20
2023-01-31T00:56:24.261Z,3.20
2023-01-31T00:58:52.122Z,3.20
2023-01-31T01:01:22.559Z,3.20
2023-01-31T01:03:49.389Z,3.20
2023-01-31T01:06:16.787Z,3.10
2023-01-31T01:08:44.100Z,3.20
2023-01-31T01:11:18.090Z,3.10
2023-01-31T01:13:45.262Z,3.10
2023-01-31T01:16:23.885Z,3.10
2023-01-31T01:18:53.235Z,3.10
2023-01-31T01:21:22.538Z,3.10
2023-01-31T01:23:49.774Z,3.10
2023-01-31T01:26:25.337Z,3.10
2023-01-31T01:28:53.449Z,3.10
2023-01-31T01:31:22.035Z,3.00
2023-01-31T01:33:54.748Z,3.00
2023-01-31T01:36:22.294Z,2.90
2023-01-31T01:38:49.312Z,2.90
2023-01-31T01:41:16.811Z,2.90
2023-01-31T01:43:55.623Z,2.90
2023-01-31T01:46:32.896Z,2.90
2023-01-31T01:49:03.000Z,2.90
2023-01-31T01:51:32.042Z,2.90
2023-01-31T01:54:00.847Z,2.90
2023-01-31T01:56:32.579Z,2.80
2023-01-31T01:59:01.790Z,2.80
2023-01-31T02:01:32.012Z,2.80
2023-01-31T02:03:59.153Z,2.80
2023-01-31T02:06:26.006Z,2.70
2023-01-31T02:08:56.080Z,2.70
2023-01-31T02:11:28.544Z,2.70
2023-01-31T02:14:01.158Z,2.60
2023-01-31T02:16:28.253Z,2.60
2023-01-31T02:18:55.483Z,2.60
2023-01-31T02:21:50.377Z,2.60
2023-01-31T02:24:48.334Z,2.60
2023-01-31T02:27:52.691Z,2.60
2023-01-31T02:30:41.524Z,2.50
2023-01-31T02:33:20.500Z,2.50
2023-01-31T02:36:18.423Z,2.50
2023-01-31T02:39:24.362Z,2.50
2023-01-31T02:42:06.888Z,2.50
2023-01-31T02:45:02.281Z,2.50
2023-01-31T02:47:51.079Z,2.50
2023-01-31T02:50:27.725Z,2.40
2023-01-31T02:53:14.676Z,2.40
2023-01-31T02:56:04.028Z,2.40
2023-01-31T02:58:36.793Z,2.40
2023-01-31T03:01:05.211Z,2.40
2023-01-31T03:03:38.133Z,2.40
2023-01-31T03:06:12.434Z,2.30
2023-01-31T03:08:40.749Z,2.30
2023-01-31T03:11:08.667Z,2.30
2023-01-31T03:13:49.492Z,2.30
2023-01-31T03:16:48.642Z,2.30
2023-01-31T03:19:36.561Z,2.30
2023-01-31T03:22:16.449Z,2.30
2023-01-31T03:24:45.273Z,2.30
2023-01-31T03:27:12.124Z,2.30
2023-01-31T03:29:42.787Z,2.30
2023-01-31T03:32:29.918Z,2.30
2023-01-31T03:34:57.131Z,2.20
2023-01-31T03:37:37.608Z,2.20
2023-01-31T03:40:08.861Z,2.20
2023-01-31T03:42:56.918Z,2.20
2023-01-31T03:45:28.981Z,2.20
2023-01-31T03:47:56.838Z,2.20
2023-01-31T03:50:28.958Z,2.20
2023-01-31T03:53:00.359Z,2.20
2023-01-31T03:55:41.522Z,2.10
2023-01-31T03:58:08.631Z,2.10
2023-01-31T04:00:37.219Z,2.10
2023-01-31T04:03:20.727Z,2.00
2023-01-31T04:05:49.197Z,2.00
2023-01-31T04:08:17.089Z,2.00
2023-01-31T04:10:44.078Z,2.00
2023-01-31T04:13:11.436Z,2.00
2023-01-31T04:15:38.373Z,2.00
2023-01-31T04:18:05.241Z,2.00
2023-01-31T04:20:32.086Z,2.00
2023-01-31T04:22:59.984Z,1.90
2023-01-31T04:25:26.779Z,2.00
2023-01-31T04:27:53.695Z,2.00
2023-01-31T04:30:20.463Z,2.00
2023-01-31T04:32:47.264Z,2.00
2023-01-31T04:35:14.279Z,2.00
2023-01-31T04:37:41.093Z,2.10
2023-01-31T04:40:08.744Z,2.10
2023-01-31T04:42:35.590Z,2.10
2023-01-31T04:45:05.074Z,2.10
2023-01-31T04:47:32.008Z,2.00
2023-01-31T04:50:01.241Z,2.10
2023-01-31T04:52:28.046Z,2.10
2023-01-31T04:54:56.478Z,2.10
2023-01-31T04:57:23.506Z,2.10
2023-01-31T04:59:52.147Z,2.10
2023-01-31T05:02:19.115Z,2.10
2023-01-31T05:04:46.275Z,2.10
2023-01-31T05:07:13.096Z,2.10
2023-01-31T05:09:42.601Z,2.10
2023-01-31T05:12:09.546Z,2.10
2023-01-31T05:14:36.544Z,2.20
2023-01-31T05:17:03.288Z,2.20
2023-01-31T05:19:32.715Z,2.20
2023-01-31T05:21:59.588Z,2.20
2023-01-31T05:24:28.831Z,2.20
2023-01-31T05:26:58.776Z,2.20
2023-01-31T05:29:27.002Z,2.20
2023-01-31T05:31:55.209Z,2.30
2023-01-31T05:34:23.047Z,2.30
2023-01-31T05:36:52.895Z,2.30
2023-01-31T05:39:19.801Z,2.30
2023-01-31T05:41:46.591Z,2.40
2023-01-31T05:44:14.486Z,2.40
2023-01-31T05:46:41.312Z,2.30
2023-01-31T05:49:09.653Z,2.40
2023-01-31T05:51:36.510Z,2.40
2023-01-31T05:54:03.393Z,2.50
2023-01-31T05:56:30.308Z,2.50
2023-01-31T05:58:57.684Z,2.60
2023-01-31T06:01:26.778Z,2.50
2023-01-31T06:03:53.739Z,2.60
2023-01-31T06:06:21.919Z,2.70
2023-01-31T06:08:49.743Z,2.70
2023-01-31T06:11:16.766Z,2.70
2023-01-31T06:13:46.887Z,2.70
2023-01-31T06:16:13.740Z,2.80
2023-01-31T06:18:40.643Z,2.80
2023-01-31T06:21:07.613Z,2.90
2023-01-31T06:23:34.609Z,2.90
2023-01-31T06:26:01.522Z,2.90
2023-01-31T06:28:28.505Z,2.90
2023-01-31T06:30:55.722Z,2.90
2023-01-31T06:33:26.419Z,2.90
2023-01-31T06:36:01.994Z,3.00
2023-01-31T06:38:29.509Z,3.00
2023-01-31T06:40:56.733Z,3.00
2023-01-31T06:43:23.744Z,3.00
2023-01-31T06:45:50.810Z,3.10
2023-01-31T06:48:21.274Z,3.10
2023-01-31T06:50:48.248Z,3.10
2023-01-31T06:53:18.258Z,3.10
2023-01-31T06:55:45.096Z,3.20
2023-01-31T06:58:11.856Z,3.20
2023-01-31T07:00:41.662Z,3.20
2023-01-31T07:03:08.433Z,3.20
2023-01-31T07:05:36.554Z,3.20
2023-01-31T07:08:03.376Z,3.30
2023-01-31T07:10:33.463Z,3.30
2023-01-31T07:13:01.533Z,3.30
2023-01-31T07:15:28.439Z,3.30
2023-01-31T07:18:02.728Z,3.40
2023-01-31T07:20:30.230Z,3.40
2023-01-31T07:22:58.586Z,3.40
2023-01-31T07:25:26.503Z,3.50
2023-01-31T07:27:53.320Z,3.50
2023-01-31T07:30:20.122Z,3.50
2023-01-31T07:32:46.968Z,3.60
2023-01-31T07:35:13.969Z,3.60
2023-01-31T07:37:43.463Z,3.60
2023-01-31T07:40:13.455Z,3.60
2023-01-31T07:42:40.783Z,3.60
2023-01-31T07:45:22.490Z,3.70
2023-01-31T07:48:00.042Z,3.70
2023-01-31T07:50:29.828Z,3.70
2023-01-31T07:52:58.562Z,3.70
2023-01-31T07:55:26.315Z,3.70
2023-01-31T07:57:53.536Z,3.80
2023-01-31T08:00:39.399Z,3.80
2023-01-31T08:03:32.453Z,3.90
2023-01-31T08:06:08.614Z,3.90
2023-01-31T08:08:36.370Z,3.90
2023-01-31T08:11:05.113Z,4.00
2023-01-31T08:13:33.866Z,4.00
2023-01-31T08:16:01.620Z,4.00
2023-01-31T08:18:28.665Z,4.10
2023-01-31T08:20:56.999Z,4.10
2023-01-31T08:23:23.973Z,4.20
2023-01-31T08:25:50.857Z,4.20
2023-01-31T08:28:17.725Z,4.10
2023-01-31T08:30:50.324Z,4.20
2023-01-31T08:33:23.548Z,4.30
2023-01-31T08:35:50.581Z,4.30
2023-01-31T08:38:20.719Z,4.30
2023-01-31T08:40:47.733Z,4.40
2023-01-31T08:43:14.839Z,4.40
2023-01-31T08:45:42.306Z,4.40
2023-01-31T08:48:09.221Z,4.40
2023-01-31T08:50:35.971Z,4.50
2023-01-31T08:53:04.848Z,4.50
2023-01-31T08:55:32.629Z,4.50
2023-01-31T08:58:00.579Z,4.50
2023-01-31T09:00:28.129Z,4.50
2023-01-31T09:02:59.548Z,4.60
2023-01-31T09:05:30.438Z,4.60
2023-01-31T09:07:57.465Z,4.70
2023-01-31T09:10:24.804Z,4.70
2023-01-31T09:12:51.769Z,4.70
2023-01-31T09:15:19.166Z,4.70
2023-01-31T09:17:46.316Z,4.70
2023-01-31T09:20:13.195Z,4.70
2023-01-31T09:22:40.048Z,4.70
2023-01-31T09:25:07.822Z,4.80
2023-01-31T09:27:35.847Z,4.80
2023-01-31T09:30:02.907Z,4.80
2023-01-31T09:32:31.086Z,4.80
2023-01-31T09:34:58.514Z,4.90
2023-01-31T09:37:25.451Z,4.90
2023-01-31T09:39:52.334Z,4.90
2023-01-31T09:42:35.149Z,4.90
2023-01-31T09:45:06.840Z,4.90
2023-01-31T09:47:38.411Z,4.90
2023-01-31T09:50:34.185Z,5.00
2023-01-31T09:53:01.643Z,5.10
2023-01-31T09:55:46.435Z,5.10
2023-01-31T09:58:44.414Z,5.10
2023-01-31T10:01:22.686Z,5.10
2023-01-31T10:04:02.586Z,5.10
2023-01-31T10:06:36.271Z,5.20
2023-01-31T10:09:15.809Z,5.30
2023-01-31T10:11:58.372Z,5.40
2023-01-31T10:14:31.771Z,5.50
2023-01-31T10:17:06.423Z,5.50
2023-01-31T10:19:44.279Z,5.60
2023-01-31T10:22:47.511Z,5.60
2023-01-31T10:25:33.604Z,5.60
2023-01-31T10:28:23.786Z,5.70
2023-01-31T10:31:03.690Z,5.70
2023-01-31T10:33:37.104Z,5.80
2023-01-31T10:36:15.380Z,6.00
2023-01-31T10:39:05.781Z,6.20
2023-01-31T10:41:45.642Z,6.20
2023-01-31T10:44:32.689Z,6.20
2023-01-31T10:46:59.975Z,6.20
2023-01-31T10:49:28.019Z,6.20
2023-01-31T10:52:28.602Z,6.20
2023-01-31T10:55:08.361Z,6.20
2023-01-31T10:57:35.595Z,6.30
2023-01-31T11:00:03.182Z,6.30
2023-01-31T11:02:31.877Z,6.40
2023-01-31T11:04:59.795Z,6.40
2023-01-31T11:07:31.432Z,6.50
2023-01-31T11:09:58.748Z,6.60
2023-01-31T11:12:57.057Z,6.70
2023-01-31T11:15:27.058Z,6.80
2023-01-31T11:17:54.260Z,6.80
2023-01-31T11:20:30.420Z,6.90
2023-01-31T11:22:59.190Z,6.90
2023-01-31T11:25:27.164Z,7.00
2023-01-31T11:27:57.087Z,7.10
2023-01-31T11:30:36.237Z,7.20
2023-01-31T11:33:03.176Z,7.30
2023-01-31T11:35:33.135Z,7.30
2023-01-31T11:38:22.302Z,7.30
2023-01-31T11:40:49.580Z,7.30
2023-01-31T11:43:19.168Z,7.30
2023-01-31T11:45:53.668Z,7.30
2023-01-31T11:48:24.164Z,7.40
2023-01-31T11:50:54.427Z,7.40
2023-01-31T11:53:24.402Z,7.40
2023-01-31T11:55:54.775Z,7.40
2023-01-31T11:58:25.578Z,7.40
2023-01-31T12:00:52.699Z,7.40
2023-01-31T12:03:19.649Z,7.50
2023-01-31T12:05:51.272Z,7.50
2023-01-31T12:08:30.667Z,7.50
2023-01-31T12:10:58.823Z,7.50
2023-01-31T12:13:26.352Z,7.60
2023-01-31T12:15:58.103Z,7.60
2023-01-31T12:19:03.809Z,7.70
2023-01-31T12:21:55.674Z,7.70
2023-01-31T12:24:40.971Z,7.70
2023-01-31T12:27:44.037Z,7.70
2023-01-31T12:30:16.516Z,7.80
2023-01-31T12:33:01.563Z,7.80
2023-01-31T12:35:48.977Z,7.80
2023-01-31T12:38:33.800Z,7.80
2023-01-31T12:41:17.105Z,7.80
2023-01-31T12:43:53.383Z,7.80
2023-01-31T12:46:42.263Z,7.70
2023-01-31T12:49:27.984Z,7.80
2023-01-31T12:52:21.849Z,7.70
2023-01-31T12:54:54.369Z,7.70
2023-01-31T12:57:27.872Z,7.70
2023-01-31T13:00:04.107Z,7.70
2023-01-31T13:02:41.369Z,7.70
2023-01-31T13:05:17.378Z,7.70
2023-01-31T13:07:53.204Z,7.70
2023-01-31T13:10:42.228Z,7.70
2023-01-31T13:13:21.057Z,7.70
2023-01-31T13:15:52.344Z,7.70
2023-01-31T13:18:19.874Z,7.70
2023-01-31T13:20:50.650Z,7.70
2023-01-31T13:23:23.961Z,7.70
2023-01-31T13:25:58.294Z,7.80
2023-01-31T13:28:28.985Z,7.80
2023-01-31T13:30:57.872Z,7.80
2023-01-31T13:33:25.203Z,7.80
2023-01-31T13:36:22.866Z,7.80
2023-01-31T13:38:52.902Z,7.80
2023-01-31T13:41:27.335Z,7.90
2023-01-31T13:43:55.987Z,7.90
2023-01-31T13:46:29.099Z,8.00
2023-01-31T13:49:00.042Z,8.00
2023-01-31T13:51:36.751Z,8.10
2023-01-31T13:54:18.984Z,8.20
2023-01-31T13:56:54.508Z,8.30
2023-01-31T13:59:24.558Z,8.30
2023-01-31T14:01:55.117Z,8.30
2023-01-31T14:04:26.007Z,8.20
2023-01-31T14:06:55.732Z,8.50
2023-01-31T14:09:29.525Z,8.50
2023-01-31T14:12:15.705Z,8.70
2023-01-31T14:14:57.223Z,8.70
2023-01-31T14:17:24.315Z,8.90
2023-01-31T14:19:51.074Z,9.00
2023-01-31T14:22:21.454Z,8.80
2023-01-31T14:24:53.376Z,8.80
2023-01-31T14:27:33.672Z,8.80
2023-01-31T14:30:11.563Z,8.80
2023-01-31T14:32:40.074Z,8.70
2023-01-31T14:35:10.164Z,8.70
2023-01-31T14:38:02.162Z,8.70
2023-01-31T14:40:45.436Z,8.70
2023-01-31T14:43:35.744Z,8.70
2023-01-31T14:46:03.044Z,8.70
2023-01-31T14:49:08.010Z,8.70
2023-01-31T14:52:03.835Z,8.70
2023-01-31T14:54:39.934Z,8.70
2023-01-31T14:57:18.391Z,8.70
2023-01-31T15:00:00.128Z,8.70
2023-01-31T15:02:33.131Z,8.70
2023-01-31T15:05:07.466Z,8.70
2023-01-31T15:07:34.404Z,8.70
2023-01-31T15:10:01.642Z,8.70
2023-01-31T15:12:57.337Z,8.70
2023-01-31T15:15:34.456Z,8.80
2023-01-31T15:18:14.038Z,8.70
2023-01-31T15:20:44.267Z,8.80
2023-01-31T15:23:19.488Z,8.80
2023-01-31T15:25:47.986Z,8.80
2023-01-31T15:28:17.618Z,8.80
2023-01-31T15:30:44.876Z,8.80
2023-01-31T15:33:37.989Z,8.80
2023-01-31T15:36:09.326Z,8.80
2023-01-31T15:38:44.276Z,8.80
2023-01-31T15:41:17.582Z,8.80
2023-01-31T15:43:45.461Z,8.80
2023-01-31T15:46:22.727Z,8.80
2023-01-31T15:48:49.825Z,8.80
2023-01-31T15:51:18.483Z,8.80
2023-01-31T15:53:45.708Z,8.70
2023-01-31T15:56:22.293Z,8.70
2023-01-31T15:58:51.275Z,8.70
2023-01-31T16:01:18.256Z,8.70
2023-01-31T16:03:56.239Z,8.70
2023-01-31T16:06:30.565Z,8.70
2023-01-31T16:09:01.169Z,8.70
2023-01-31T16:11:33.562Z,8.70
2023-01-31T16:14:02.977Z,8.70
2023-01-31T16:16:30.490Z,8.70
2023-01-31T16:18:59.264Z,8.70
2023-01-31T16:21:38.020Z,8.60
2023-01-31T16:24:11.241Z,8.60
2023-01-31T16:26:40.137Z,8.60
2023-01-31T16:29:15.138Z,8.70
2023-01-31T16:31:51.126Z,8.60
2023-01-31T16:34:27.243Z,8.60
2023-01-31T16:37:00.110Z,8.60
2023-01-31T16:39:47.418Z,8.60
2023-01-31T16:42:24.082Z,8.50
2023-01-31T16:44:51.366Z,8.60
2023-01-31T16:47:40.103Z,8.50
2023-01-31T16:50:41.796Z,8.50
2023-01-31T16:53:29.471Z,8.50
2023-01-31T16:56:14.915Z,8.50
2023-01-31T16:58:55.162Z,8.50
2023-01-31T17:01:30.937Z,8.50
2023-01-31T17:04:04.195Z,8.50
2023-01-31T17:06:31.133Z,8.50
2023-01-31T17:08:58.591Z,8.50
2023-01-31T17:11:41.710Z,8.50
2023-01-31T17:14:12.592Z,8.50
2023-01-31T17:16:40.706Z,8.40
2023-01-31T17:19:07.591Z,8.40
2023-01-31T17:21:44.599Z,8.40
2023-01-31T17:24:17.856Z,8.40
2023-01-31T17:26:45.609Z,8.30
2023-01-31T17:29:12.545Z,8.20
2023-01-31T17:31:41.013Z,8.20
2023-01-31T17:34:13.800Z,8.10
2023-01-31T17:36:41.052Z,8.10
2023-01-31T17:39:09.927Z,8.00
2023-01-31T17:41:37.798Z,8.00
2023-01-31T17:44:06.636Z,8.00
2023-01-31T17:46:33.842Z,8.00
2023-01-31T17:49:00.695Z,7.90
2023-01-31T17:51:27.581Z,7.80
2023-01-31T17:53:54.474Z,7.80
2023-01-31T17:56:21.391Z,7.80
2023-01-31T17:58:49.586Z,7.70
2023-01-31T18:01:16.689Z,7.80
2023-01-31T18:03:47.170Z,7.70
2023-01-31T18:06:15.294Z,7.70
2023-01-31T18:08:42.162Z,7.70
2023-01-31T18:11:15.076Z,7.60
2023-01-31T18:13:42.697Z,7.60
2023-01-31T18:16:18.374Z,7.60
2023-01-31T18:18:45.353Z,7.50
2023-01-31T18:21:17.787Z,7.50
2023-01-31T18:23:50.116Z,7.40
2023-01-31T18:26:19.774Z,7.40
2023-01-31T18:28:47.071Z,7.40
2023-01-31T18:31:15.838Z,7.40
2023-01-31T18:33:44.901Z,7.30
2023-01-31T18:36:18.099Z,7.30
2023-01-31T18:38:46.422Z,7.30
2023-01-31T18:41:18.659Z,7.40
2023-01-31T18:43:46.395Z,7.30
2023-01-31T18:46:13.514Z,7.20
2023-01-31T18:48:41.937Z,7.20
2023-01-31T18:51:11.853Z,7.20
2023-01-31T18:53:41.129Z,7.10
2023-01-31T18:56:14.236Z,7.10
2023-01-31T18:58:42.051Z,7.10
2023-01-31T19:01:13.450Z,7.10
2023-01-31T19:03:42.267Z,7.10
2023-01-31T19:06:13.373Z,7.10
2023-01-31T19:08:40.559Z,7.00
2023-01-31T19:11:09.009Z,7.00
2023-01-31T19:13:36.492Z,7.00
2023-01-31T19:16:05.990Z,6.90
2023-01-31T19:18:33.248Z,6.90
2023-01-31T19:21:00.154Z,6.90
2023-01-31T19:23:27.615Z,6.90
2023-01-31T19:25:54.841Z,6.80
2023-01-31T19:28:23.304Z,6.80
2023-01-31T19:30:51.951Z,6.70
2023-01-31T19:33:19.514Z,6.70
2023-01-31T19:35:46.970Z,6.70
2023-01-31T19:38:14.064Z,6.70
2023-01-31T19:40:42.675Z,6.70
2023-01-31T19:43:09.514Z,6.70
2023-01-31T19:45:36.509Z,6.70
2023-01-31T19:48:03.628Z,6.60
2023-01-31T19:50:30.544Z,6.60
2023-01-31T19:52:57.519Z,6.60
2023-01-31T19:55:24.348Z,6.50
2023-01-31T19:57:51.196Z,6.50
2023-01-31T20:00:18.236Z,6.40
2023-01-31T20:02:45.694Z,6.40
2023-01-31T20:05:15.807Z,6.40
2023-01-31T20:07:42.836Z,6.40
2023-01-31T20:10:12.967Z,6.40
2023-01-31T20:12:39.908Z,6.40
2023-01-31T20:15:07.544Z,6.40
2023-01-31T20:17:34.680Z,6.40
2023-01-31T20:20:01.714Z,6.40
2023-01-31T20:22:29.333Z,6.40
2023-01-31T20:24:59.427Z,6.40
2023-01-31T20:27:26.572Z,6.30
2023-01-31T20:29:53.380Z,6.30
2023-01-31T20:32:20.481Z,6.30
2023-01-31T20:34:47.358Z,6.30
2023-01-31T20:37:14.475Z,6.30
2023-01-31T20:39:41.713Z,6.20
2023-01-31T20:42:10.754Z,6.20
2023-01-31T20:44:38.116Z,6.10
2023-01-31T20:47:05.434Z,6.10
2023-01-31T20:49:32.487Z,6.10
2023-01-31T20:51:59.421Z,6.00
2023-01-31T20:54:26.718Z,6.10
2023-01-31T20:56:53.706Z,6.00
2023-01-31T20:59:20.627Z,6.00
2023-01-31T21:01:47.596Z,6.00
2023-01-31T21:04:15.165Z,5.90
2023-01-31T21:06:44.924Z,5.90
2023-01-31T21:09:13.439Z,5.90
2023-01-31T21:11:40.347Z,5.80
2023-01-31T21:14:07.237Z,5.80
2023-01-31T21:16:34.111Z,5.70
2023-01-31T21:19:00.975Z,5.70
2023-01-31T21:21:27.844Z,5.70
2023-01-31T21:23:56.935Z,5.70
2023-01-31T21:26:26.754Z,5.60
2023-01-31T21:28:53.855Z,5.60
2023-01-31T21:31:21.246Z,5.50
2023-01-31T21:33:52.352Z,5.40
2023-01-31T21:36:22.216Z,5.40
2023-01-31T21:38:51.258Z,5.40
2023-01-31T21:41:37.274Z,5.40
2023-01-31T21:44:04.435Z,5.40
2023-01-31T21:46:31.271Z,5.30
2023-01-31T21:48:59.479Z,5.30
2023-01-31T21:51:26.436Z,5.30
2023-01-31T21:53:54.280Z,5.20
2023-01-31T21:56:24.185Z,5.20
2023-01-31T21:58:53.437Z,5.20
2023-01-31T22:01:23.437Z,5.20
2023-01-31T22:03:51.519Z,5.10
2023-01-31T22:06:21.196Z,5.10
2023-01-31T22:08:58.189Z,5.10
2023-01-31T22:11:25.758Z,5.10
2023-01-31T22:13:55.953Z,5.10
2023-01-31T22:16:23.336Z,5.00
2023-01-31T22:18:50.549Z,5.00
2023-01-31T22:21:23.934Z,5.00
2023-01-31T22:23:55.323Z,5.00
2023-01-31T22:26:25.097Z,5.00
2023-01-31T22:28:54.661Z,4.90
2023-01-31T22:31:22.333Z,4.90
2023-01-31T22:33:50.335Z,4.90
2023-01-31T22:36:17.898Z,4.80
2023-01-31T22:38:46.978Z,4.80
2023-01-31T22:41:17.154Z,4.80
2023-01-31T22:43:48.047Z,4.80
2023-01-31T22:46:20.577Z,4.80
2023-01-31T22:48:51.033Z,4.80
2023-01-31T22:51:20.971Z,4.70
2023-01-31T22:53:48.384Z,4.80
2023-01-31T22:56:20.767Z,4.80
2023-01-31T22:58:47.852Z,4.80
2023-01-31T23:01:19.693Z,4.70
2023-01-31T23:03:47.490Z,4.70
2023-01-31T23:06:15.232Z,4.70
2023-01-31T23:08:42.314Z,4.70
2023-01-31T23:11:12.138Z,4.70
2023-01-31T23:13:39.584Z,4.70
2023-01-31T23:16:07.371Z,4.70
2023-01-31T23:18:34.836Z,4.80
2023-01-31T23:21:10.092Z,4.70
2023-01-31T23:23:37.395Z,4.70
2023-01-31T23:26:05.112Z,4.70
2023-01-31T23:28:32.172Z,4.70
2023-01-31T23:30:59.249Z,4.70
2023-01-31T23:33:26.124Z,4.70
2023-01-31T23:35:53.317Z,4.70
2023-01-31T23:38:20.312Z,4.70
2023-01-31T23:40:52.033Z,4.70
2023-01-31T23:43:19.500Z,4.80
2023-01-31T23:45:46.716Z,4.80
2023-01-31T23:48:13.538Z,4.80
2023-01-31T23:50:40.434Z,4.80
2023-01-31T23:53:07.203Z,4.80
2023-01-31T23:55:34.051Z,4.80
2023-01-31T23:58:00.954Z,4.80
